High Roller — WDD2839 — position and weather

sailwx.info

Track history (hours):
 
Tides and Currents Weather Stations Pressure Air Temp Water Temp Dewpoint Dewpoint Depression Visibility Wind Speed Wind Dir Waves Ship Positions

High Roller

Owner: HAYS TUG & LAUNCH SERVICE INC, WALLINGFORD, PA. More information available from US FCC via Universal Licensing System and Coast Guard Vessel Documentation Center.

Last reported at 2018-Jun-25 19:30 UTC. Time now 2018-Jun-25 19:45 UTC.
Position N 39°54' W 075°13'.

Length 33 m.

Type: Tug. MMSI: 367120550.

Date/timePositionNaut miles runAvg speedWind from/ knotsBaromVisibWave heightAir tempDewpointWater temp
2018-Jun-25 19:30N 39°54' W 075°13'1 2.4
2018-Jun-25 19:00N 39°53' W 075°12'3 6.7
2018-Jun-25 18:30N 39°54' W 075°08'4 7.3
2018-Jun-25 18:00N 39°58' W 075°07'2 4.2
2018-Jun-25 17:30N 39°59' W 075°05'2 3.8
2018-Jun-25 17:01N 39°58' W 075°07'3 6.4
2018-Jun-25 16:30N 39°55' W 075°08'0 0.4
2018-Jun-25 16:00N 39°55' W 075°08'2 3.9
2018-Jun-25 15:30N 39°53' W 075°09'1 2.0
2018-Jun-25 15:01N 39°54' W 075°08'3 5.8
2018-Jun-25 14:30N 39°54' W 075°12'0 0.0
2018-Jun-25 14:00N 39°54' W 075°12'0 0.0
2018-Jun-25 13:31N 39°54' W 075°12'0 0.0
2018-Jun-25 13:00N 39°54' W 075°12'1 1.7
2018-Jun-25 12:30N 39°53' W 075°12'3 5.7
2018-Jun-25 12:00N 39°54' W 075°08'2 4.8
2018-Jun-25 11:30N 39°56' W 075°08'4 7.4
2018-Jun-25 11:00N 39°59' W 075°05'3 6.1
2018-Jun-25 10:30N 39°57' W 075°08'4 7.6
2018-Jun-25 10:01N 39°53' W 075°08'3 5.6
2018-Jun-25 09:30N 39°54' W 075°12'1 1.0
2018-Jun-25 09:00N 39°54' W 075°12'0 0.0
2018-Jun-24 19:00N 39°54' W 075°13'1 2.5
2018-Jun-24 18:30N 39°53' W 075°12'3 6.8
2018-Jun-24 18:00N 39°55' W 075°08'4 7.5
2018-Jun-24 17:30N 39°58' W 075°07'2 3.2
2018-Jun-24 17:00N 39°59' W 075°05'0 0.0
2018-Jun-24 16:30N 39°59' W 075°05'0 0.0
2018-Jun-24 16:00N 39°59' W 075°05'0 0.0
2018-Jun-24 15:30N 39°59' W 075°05'0 0.0
2018-Jun-24 15:00N 39°59' W 075°05'0 0.0
2018-Jun-24 14:30N 39°59' W 075°05'0 0.0
2018-Jun-24 13:59N 39°59' W 075°05'0 0.0
2018-Jun-24 13:30N 39°59' W 075°05'0 0.0
2018-Jun-24 13:00N 39°59' W 075°05'0 0.0
2018-Jun-24 12:31N 39°59' W 075°05'0 0.0
2018-Jun-24 12:00N 39°59' W 075°05'0 0.0
2018-Jun-24 11:30N 39°59' W 075°05'1 2.3
2018-Jun-24 11:00N 39°58' W 075°06'4 7.2
2018-Jun-24 10:30N 39°55' W 075°08'3 5.7
2018-Jun-24 10:00N 39°53' W 075°10'2 4.7
2018-Jun-24 09:30N 39°54' W 075°13'1 1.5
2018-Jun-24 09:00N 39°54' W 075°12'0 0.0
2018-Jun-23 15:13N 39°54' W 075°12'0 0.0
2018-Jun-23 15:00N 39°54' W 075°12'0 0.0
2018-Jun-23 14:30N 39°54' W 075°12'0 0.0
2018-Jun-23 14:00N 39°54' W 075°12'1 1.2
2018-Jun-23 13:30N 39°53' W 075°12'510.5
2018-Jun-23 13:00N 39°51' W 075°18'0 0.4
2018-Jun-23 12:30N 39°51' W 075°17'0 0.8
2018-Jun-23 12:00N 39°51' W 075°17'3 5.4
2018-Jun-23 11:30N 39°52' W 075°14'3 5.7
2018-Jun-23 11:00N 39°53' W 075°10'3 5.3
2018-Jun-23 10:30N 39°55' W 075°08'3 5.1
2018-Jun-23 10:00N 39°57' W 075°08'4 7.3
2018-Jun-23 09:31N 39°54' W 075°08'4 0.4
2018-Jun-23 01:10N 39°54' W 075°13'0 0.6
2018-Jun-23 01:00N 39°54' W 075°13'2 4.8
2018-Jun-23 00:30N 39°53' W 075°10'3 5.1
2018-Jun-23 00:00N 39°55' W 075°08'3 5.3
2018-Jun-22 23:30N 39°58' W 075°08'3 5.2
2018-Jun-22 23:00N 39°59' W 075°05'3 6.9
2018-Jun-22 22:31N 39°57' W 075°08'5 9.0
2018-Jun-22 22:00N 39°53' W 075°11'3 6.1
2018-Jun-22 21:30N 39°51' W 075°14'510.5
2018-Jun-22 21:00N 39°50' W 075°21'1 2.3
2018-Jun-22 20:30N 39°49' W 075°22'1 1.5
2018-Jun-22 20:00N 39°50' W 075°21'3 6.0
2018-Jun-22 19:30N 39°51' W 075°18'0 0.0
2018-Jun-22 19:00N 39°51' W 075°18'0 0.2
2018-Jun-22 18:30N 39°51' W 075°17'0 0.4
2018-Jun-22 18:00N 39°51' W 075°18'0 0.1
2018-Jun-22 17:30N 39°51' W 075°18'2 4.2
2018-Jun-22 17:00N 39°51' W 075°15'510.8
2018-Jun-22 16:30N 39°53' W 075°09'510.2
2018-Jun-22 16:00N 39°58' W 075°07'2 3.8
2018-Jun-22 15:28N 39°59' W 075°05'0 0.0
2018-Jun-22 14:59N 39°59' W 075°05'0 0.0
2018-Jun-22 14:30N 39°59' W 075°05'0 0.0
2018-Jun-22 14:00N 39°59' W 075°05'0 0.0
2018-Jun-22 13:30N 39°59' W 075°05'0 0.0
2018-Jun-22 12:59N 39°59' W 075°05'0 0.0
2018-Jun-22 12:30N 39°59' W 075°05'0 0.0
2018-Jun-22 11:59N 39°59' W 075°05'0 0.0
2018-Jun-22 11:30N 39°59' W 075°05'2 3.4
2018-Jun-22 10:57N 39°58' W 075°07'4 9.4
2018-Jun-22 10:30N 39°54' W 075°08'3 6.1
2018-Jun-22 10:00N 39°54' W 075°12'0 0.3
2018-Jun-22 09:30N 39°54' W 075°12'5 9.8
2018-Jun-22 09:00N 39°51' W 075°17'5 0.3
2018-Jun-21 15:33N 39°50' W 075°23'0 0.0
2018-Jun-21 15:30N 39°50' W 075°23'0 0.0
2018-Jun-21 15:00N 39°50' W 075°23'0 0.0
2018-Jun-21 14:31N 39°50' W 075°23'0 0.0
2018-Jun-21 14:01N 39°50' W 075°23'0 0.0
2018-Jun-21 13:30N 39°50' W 075°23'0 0.0
2018-Jun-21 13:00N 39°50' W 075°23'0 0.0
2018-Jun-21 12:31N 39°50' W 075°23'0 0.1
2018-Jun-21 12:00N 39°50' W 075°23'0 0.0
2018-Jun-21 11:31N 39°50' W 075°23'0 0.0
2018-Jun-21 11:00N 39°50' W 075°23'0 0.0
2018-Jun-21 10:30N 39°50' W 075°23'0 0.0
2018-Jun-21 10:01N 39°50' W 075°23'0 0.0
2018-Jun-21 09:30N 39°50' W 075°23'0 0.0
2018-Jun-21 09:00N 39°50' W 075°23'0 0.0
2018-Jun-21 08:30N 39°50' W 075°23'0 0.0
2018-Jun-21 08:00N 39°50' W 075°23'0 0.0
2018-Jun-21 07:31N 39°50' W 075°23'0 0.0
2018-Jun-21 07:00N 39°50' W 075°23'0 0.0
2018-Jun-21 06:30N 39°50' W 075°23'0 0.0
2018-Jun-21 06:00N 39°50' W 075°23'0 0.0
2018-Jun-21 05:30N 39°50' W 075°23'0 0.0
2018-Jun-21 05:00N 39°50' W 075°23'0 0.0
2018-Jun-21 04:30N 39°50' W 075°23'0 0.0
2018-Jun-21 04:00N 39°50' W 075°23'0 0.0
2018-Jun-21 03:30N 39°50' W 075°23'0 0.0
2018-Jun-21 03:01N 39°50' W 075°23'0 0.0
2018-Jun-21 02:30N 39°50' W 075°23'0 0.0
2018-Jun-21 02:00N 39°50' W 075°23'0 0.0
2018-Jun-21 01:30N 39°50' W 075°23'0 0.0
2018-Jun-21 01:00N 39°50' W 075°23'0 0.0
2018-Jun-21 00:30N 39°50' W 075°23'0 0.0
2018-Jun-21 00:00N 39°50' W 075°23'0 0.0
2018-Jun-20 23:30N 39°50' W 075°23'0 0.0
2018-Jun-20 23:00N 39°50' W 075°23'0 0.0
2018-Jun-20 22:31N 39°50' W 075°23'0 0.0
2018-Jun-20 22:00N 39°50' W 075°23'0 0.0
2018-Jun-20 21:30N 39°50' W 075°23'0 0.0
2018-Jun-20 21:00N 39°50' W 075°23'0 0.0
2018-Jun-20 20:31N 39°50' W 075°23'0 0.0
2018-Jun-20 20:01N 39°50' W 075°23'2 4.8
2018-Jun-20 19:31N 39°51' W 075°20'510.3
2018-Jun-20 19:01N 39°52' W 075°14'2 4.5
2018-Jun-20 18:30N 39°54' W 075°13'1 3.0
2018-Jun-20 18:01N 39°53' W 075°11'3 6.8
2018-Jun-20 17:30N 39°55' W 075°08'4 7.2
2018-Jun-20 17:00N 39°58' W 075°06'1 2.5
2018-Jun-20 16:30N 39°59' W 075°05'0 0.0
2018-Jun-20 16:00N 39°59' W 075°05'0 0.0
2018-Jun-20 15:30N 39°59' W 075°05'0 0.0
2018-Jun-20 15:00N 39°59' W 075°05'0 0.0
2018-Jun-20 14:30N 39°59' W 075°05'0 0.0
2018-Jun-20 14:00N 39°59' W 075°05'0 0.0
2018-Jun-20 13:30N 39°59' W 075°05'0 0.0
2018-Jun-20 13:00N 39°59' W 075°05'0 0.0
2018-Jun-20 12:30N 39°59' W 075°05'0 0.0
2018-Jun-20 12:00N 39°59' W 075°05'0 0.0
2018-Jun-20 11:30N 39°59' W 075°05'0 0.1
2018-Jun-20 11:00N 39°59' W 075°05'4 8.1
2018-Jun-20 10:31N 39°56' W 075°08'4 7.6
2018-Jun-20 10:00N 39°53' W 075°11'1 2.2
2018-Jun-20 09:30N 39°54' W 075°12'0 0.0
2018-Jun-19 23:36N 39°54' W 075°13'1 6.5
2018-Jun-19 23:30N 39°54' W 075°12'2 4.9
2018-Jun-19 23:00N 39°53' W 075°09'3 5.8
2018-Jun-19 22:30N 39°56' W 075°08'2 4.8
2018-Jun-19 22:00N 39°58' W 075°07'2 3.7
2018-Jun-19 21:30N 39°59' W 075°05'5 9.7
2018-Jun-19 21:00N 39°55' W 075°08'510.2
2018-Jun-19 20:30N 39°52' W 075°13'611.3
2018-Jun-19 20:00N 39°51' W 075°21'2 4.0
2018-Jun-19 19:30N 39°50' W 075°23'3 6.1
2018-Jun-19 19:00N 39°51' W 075°19'3 5.2
2018-Jun-19 18:30N 39°51' W 075°16'5 9.4
2018-Jun-19 18:00N 39°53' W 075°10'4 7.8
2018-Jun-19 17:30N 39°56' W 075°08'4 8.0
2018-Jun-19 17:00N 39°59' W 075°04'0 0.0
2018-Jun-19 16:30N 39°59' W 075°04'0 0.0
2018-Jun-19 16:00N 39°59' W 075°04'0 0.0
2018-Jun-19 15:30N 39°59' W 075°04'0 0.0
2018-Jun-19 15:00N 39°59' W 075°04'0 0.6
2018-Jun-19 14:30N 39°59' W 075°04'0 0.2
2018-Jun-19 14:00N 39°59' W 075°05'0 0.0
2018-Jun-19 13:30N 39°59' W 075°05'0 0.0
2018-Jun-19 13:00N 39°59' W 075°05'0 0.0
2018-Jun-19 12:30N 39°59' W 075°05'0 0.0
2018-Jun-19 12:00N 39°59' W 075°05'0 0.0
2018-Jun-19 11:30N 39°59' W 075°05'0 0.0
2018-Jun-19 11:00N 39°59' W 075°05'0 0.0
2018-Jun-19 10:30N 39°59' W 075°05'1 2.3
2018-Jun-19 10:00N 39°58' W 075°06'5 9.7
2018-Jun-19 09:30N 39°54' W 075°08'4 7.0
2018-Jun-19 09:00N 39°54' W 075°13'0 0.0
2018-Jun-18 19:41N 39°54' W 075°13'0 0.1
2018-Jun-18 19:30N 39°54' W 075°13'1 2.7
2018-Jun-18 19:00N 39°53' W 075°12'3 5.4
2018-Jun-18 18:30N 39°54' W 075°08'3 6.7
2018-Jun-18 18:00N 39°57' W 075°08'3 6.5
2018-Jun-18 17:31N 39°59' W 075°05'0 0.0
2018-Jun-18 17:00N 39°59' W 075°05'0 0.0
2018-Jun-18 16:30N 39°59' W 075°05'0 0.0
2018-Jun-18 16:00N 39°59' W 075°05'0 0.0
2018-Jun-18 15:30N 39°59' W 075°05'0 0.0
2018-Jun-18 15:01N 39°59' W 075°05'0 0.7
2018-Jun-18 14:30N 39°59' W 075°04'3 5.9
2018-Jun-18 14:00N 39°58' W 075°08'3 6.4
2018-Jun-18 13:31N 39°54' W 075°08'2 4.2
2018-Jun-18 13:00N 39°53' W 075°09'0 0.0
2018-Jun-18 12:30N 39°53' W 075°09'1 2.3
2018-Jun-18 12:00N 39°53' W 075°11'3 6.9
2018-Jun-18 11:30N 39°51' W 075°15'4 7.2
2018-Jun-18 11:00N 39°51' W 075°20'3 5.6
2018-Jun-18 10:30N 39°50' W 075°23'0 0.0
2018-Jun-18 10:00N 39°50' W 075°23'0 0.1
2018-Jun-18 09:30N 39°50' W 075°23'0 0.0
2018-Jun-18 09:00N 39°50' W 075°23'0 0.0
2018-Jun-18 08:30N 39°50' W 075°23'0 0.0
2018-Jun-18 08:00N 39°50' W 075°23'0 0.0
2018-Jun-18 07:30N 39°50' W 075°23'0 0.0
2018-Jun-18 07:00N 39°50' W 075°23'0 0.0
2018-Jun-18 06:30N 39°50' W 075°23'0 0.0
2018-Jun-18 06:00N 39°50' W 075°23'0 0.0
2018-Jun-18 05:28N 39°50' W 075°23'0 0.0
2018-Jun-18 05:00N 39°50' W 075°23'0 0.0
2018-Jun-18 04:30N 39°50' W 075°23'0 0.0
2018-Jun-18 04:00N 39°50' W 075°23'0 0.0
2018-Jun-18 03:30N 39°50' W 075°23'0 0.0
2018-Jun-18 03:00N 39°50' W 075°23'0 0.0
2018-Jun-18 02:30N 39°50' W 075°23'0 0.0
2018-Jun-18 02:00N 39°50' W 075°23'0 0.0
2018-Jun-18 01:30N 39°50' W 075°23'0 0.0
2018-Jun-18 01:00N 39°50' W 075°23'0 0.1
2018-Jun-18 00:30N 39°50' W 075°23'0 0.0
2018-Jun-18 00:00N 39°50' W 075°23'0 0.0
2018-Jun-17 23:30N 39°50' W 075°23'0 0.0
2018-Jun-17 23:00N 39°50' W 075°23'0 0.0
2018-Jun-17 22:30N 39°50' W 075°23'0 0.0
2018-Jun-17 22:00N 39°50' W 075°23'0 0.0
2018-Jun-17 21:30N 39°50' W 075°23'0 0.0
2018-Jun-17 21:00N 39°50' W 075°23'0 0.0
2018-Jun-17 20:29N 39°50' W 075°23'0 0.0
2018-Jun-17 20:00N 39°50' W 075°23'0 0.0
2018-Jun-17 19:31N 39°50' W 075°23'0 0.0
2018-Jun-17 19:00N 39°50' W 075°23'0 0.0
2018-Jun-17 18:30N 39°50' W 075°23'0 0.0
2018-Jun-17 18:00N 39°50' W 075°23'0 0.0
2018-Jun-17 17:31N 39°50' W 075°23'0 0.0
2018-Jun-17 17:00N 39°50' W 075°23'0 0.0
2018-Jun-17 16:30N 39°50' W 075°23'0 0.0
2018-Jun-17 16:01N 39°50' W 075°23'0 0.0
2018-Jun-17 15:30N 39°50' W 075°23'0 0.0
2018-Jun-17 15:00N 39°50' W 075°23'0 0.0
2018-Jun-17 14:30N 39°50' W 075°23'0 0.0
2018-Jun-17 14:01N 39°50' W 075°23'0 0.0
2018-Jun-17 13:30N 39°50' W 075°23'0 0.0
2018-Jun-17 13:00N 39°50' W 075°23'0 0.0
2018-Jun-17 12:30N 39°50' W 075°23'0 0.0
2018-Jun-17 12:00N 39°50' W 075°23'0 0.0
2018-Jun-17 11:30N 39°50' W 075°23'0 0.0
2018-Jun-17 11:00N 39°50' W 075°23'0 0.0
2018-Jun-17 10:30N 39°50' W 075°23'0 0.0
2018-Jun-17 10:00N 39°50' W 075°23'0 0.0
2018-Jun-17 09:30N 39°50' W 075°23'0 0.0
2018-Jun-17 09:00N 39°50' W 075°23'0 0.0
2018-Jun-17 08:31N 39°50' W 075°23'0 0.0
2018-Jun-17 08:00N 39°50' W 075°23'0 0.0
2018-Jun-17 07:30N 39°50' W 075°23'0 0.0
2018-Jun-17 07:00N 39°50' W 075°23'0 0.0
2018-Jun-17 06:31N 39°50' W 075°23'0 0.0
2018-Jun-17 06:01N 39°50' W 075°23'0 0.0
2018-Jun-17 05:30N 39°50' W 075°23'0 0.0
2018-Jun-17 05:00N 39°50' W 075°23'0 0.0
2018-Jun-17 04:30N 39°50' W 075°23'0 0.0
2018-Jun-17 04:01N 39°50' W 075°23'0 0.0
2018-Jun-17 03:31N 39°50' W 075°23'0 0.0
2018-Jun-17 03:01N 39°50' W 075°23'2 4.6
2018-Jun-17 02:30N 39°51' W 075°20'612.2
2018-Jun-17 02:00N 39°52' W 075°13'3 5.3
2018-Jun-17 01:31N 39°53' W 075°09'611.1
2018-Jun-17 01:00N 39°58' W 075°07'2 3.7
2018-Jun-17 00:30N 39°59' W 075°05'3 6.0
2018-Jun-17 00:01N 39°57' W 075°08'4 7.3
2018-Jun-16 23:30N 39°54' W 075°08'3 5.8
2018-Jun-16 23:00N 39°53' W 075°12'1 2.3
2018-Jun-16 22:30N 39°54' W 075°13'2 3.4
2018-Jun-16 22:00N 39°53' W 075°11'3 6.5
2018-Jun-16 21:30N 39°55' W 075°08'3 6.3
2018-Jun-16 21:00N 39°58' W 075°07'2 3.8
2018-Jun-16 20:30N 39°59' W 075°05'0 0.0
2018-Jun-16 20:00N 39°59' W 075°05'0 0.0
2018-Jun-16 19:30N 39°59' W 075°05'0 0.0
2018-Jun-16 19:00N 39°59' W 075°05'0 0.0
2018-Jun-16 18:30N 39°59' W 075°05'0 0.0
2018-Jun-16 18:01N 39°59' W 075°05'0 0.0
2018-Jun-16 17:30N 39°59' W 075°05'0 0.0
2018-Jun-16 17:00N 39°59' W 075°05'0 0.0
2018-Jun-16 16:30N 39°59' W 075°05'0 0.0
2018-Jun-16 16:00N 39°59' W 075°05'0 0.0
2018-Jun-16 15:30N 39°59' W 075°05'0 0.0
2018-Jun-16 15:00N 39°59' W 075°05'1 2.1
2018-Jun-16 14:30N 39°58' W 075°06'4 7.1
2018-Jun-16 14:00N 39°55' W 075°08'3 6.4
2018-Jun-16 13:30N 39°53' W 075°11'1 0.1
2018-Jun-15 20:39N 39°54' W 075°12'0 2.9
2018-Jun-15 20:31N 39°54' W 075°12'0 0.8
2018-Jun-15 19:56N 39°54' W 075°13'2 4.7
2018-Jun-15 19:31N 39°52' W 075°13'  
Track history (hours):
 
Tides and Currents Weather Stations Pressure Air Temp Water Temp Dewpoint Dewpoint Depression Visibility Wind Speed Wind Dir Waves Ship Positions

High Roller

Owner: HAYS TUG & LAUNCH SERVICE INC, WALLINGFORD, PA. More information available from US FCC via Universal Licensing System and Coast Guard Vessel Documentation Center.

Last reported at 2018-Jun-25 19:30 UTC. Time now 2018-Jun-25 19:45 UTC.
Position N 39°54' W 075°13'.

Length 33 m.

Type: Tug. MMSI: 367120550.

Date/timePositionNaut miles runAvg speedWind from/ knotsBaromVisibWave heightAir tempDewpointWater temp
2018-Jun-25 19:30N 39°54' W 075°13'1 2.4
2018-Jun-25 19:00N 39°53' W 075°12'3 6.7
2018-Jun-25 18:30N 39°54' W 075°08'4 7.3
2018-Jun-25 18:00N 39°58' W 075°07'2 4.2
2018-Jun-25 17:30N 39°59' W 075°05'2 3.8
2018-Jun-25 17:01N 39°58' W 075°07'3 6.4
2018-Jun-25 16:30N 39°55' W 075°08'0 0.4
2018-Jun-25 16:00N 39°55' W 075°08'2 3.9
2018-Jun-25 15:30N 39°53' W 075°09'1 2.0
2018-Jun-25 15:01N 39°54' W 075°08'3 5.8
2018-Jun-25 14:30N 39°54' W 075°12'0 0.0
2018-Jun-25 14:00N 39°54' W 075°12'0 0.0
2018-Jun-25 13:31N 39°54' W 075°12'0 0.0
2018-Jun-25 13:00N 39°54' W 075°12'1 1.7
2018-Jun-25 12:30N 39°53' W 075°12'3 5.7
2018-Jun-25 12:00N 39°54' W 075°08'2 4.8
2018-Jun-25 11:30N 39°56' W 075°08'4 7.4
2018-Jun-25 11:00N 39°59' W 075°05'3 6.1
2018-Jun-25 10:30N 39°57' W 075°08'4 7.6
2018-Jun-25 10:01N 39°53' W 075°08'3 5.6
2018-Jun-25 09:30N 39°54' W 075°12'1 1.0
2018-Jun-25 09:00N 39°54' W 075°12'0 0.0
2018-Jun-24 19:00N 39°54' W 075°13'1 2.5
2018-Jun-24 18:30N 39°53' W 075°12'3 6.8
2018-Jun-24 18:00N 39°55' W 075°08'4 7.5
2018-Jun-24 17:30N 39°58' W 075°07'2 3.2
2018-Jun-24 17:00N 39°59' W 075°05'0 0.0
2018-Jun-24 16:30N 39°59' W 075°05'0 0.0
2018-Jun-24 16:00N 39°59' W 075°05'0 0.0
2018-Jun-24 15:30N 39°59' W 075°05'0 0.0
2018-Jun-24 15:00N 39°59' W 075°05'0 0.0
2018-Jun-24 14:30N 39°59' W 075°05'0 0.0
2018-Jun-24 13:59N 39°59' W 075°05'0 0.0
2018-Jun-24 13:30N 39°59' W 075°05'0 0.0
2018-Jun-24 13:00N 39°59' W 075°05'0 0.0
2018-Jun-24 12:31N 39°59' W 075°05'0 0.0
2018-Jun-24 12:00N 39°59' W 075°05'0 0.0
2018-Jun-24 11:30N 39°59' W 075°05'1 2.3
2018-Jun-24 11:00N 39°58' W 075°06'4 7.2
2018-Jun-24 10:30N 39°55' W 075°08'3 5.7
2018-Jun-24 10:00N 39°53' W 075°10'2 4.7
2018-Jun-24 09:30N 39°54' W 075°13'1 1.5
2018-Jun-24 09:00N 39°54' W 075°12'0 0.0
2018-Jun-23 15:13N 39°54' W 075°12'0 0.0
2018-Jun-23 15:00N 39°54' W 075°12'0 0.0
2018-Jun-23 14:30N 39°54' W 075°12'0 0.0
2018-Jun-23 14:00N 39°54' W 075°12'1 1.2
2018-Jun-23 13:30N 39°53' W 075°12'510.5
2018-Jun-23 13:00N 39°51' W 075°18'0 0.4
2018-Jun-23 12:30N 39°51' W 075°17'0 0.8
2018-Jun-23 12:00N 39°51' W 075°17'3 5.4
2018-Jun-23 11:30N 39°52' W 075°14'3 5.7
2018-Jun-23 11:00N 39°53' W 075°10'3 5.3
2018-Jun-23 10:30N 39°55' W 075°08'3 5.1
2018-Jun-23 10:00N 39°57' W 075°08'4 7.3
2018-Jun-23 09:31N 39°54' W 075°08'4 0.4
2018-Jun-23 01:10N 39°54' W 075°13'0 0.6
2018-Jun-23 01:00N 39°54' W 075°13'2 4.8
2018-Jun-23 00:30N 39°53' W 075°10'3 5.1
2018-Jun-23 00:00N 39°55' W 075°08'3 5.3
2018-Jun-22 23:30N 39°58' W 075°08'3 5.2
2018-Jun-22 23:00N 39°59' W 075°05'3 6.9
2018-Jun-22 22:31N 39°57' W 075°08'5 9.0
2018-Jun-22 22:00N 39°53' W 075°11'3 6.1
2018-Jun-22 21:30N 39°51' W 075°14'510.5
2018-Jun-22 21:00N 39°50' W 075°21'1 2.3
2018-Jun-22 20:30N 39°49' W 075°22'1 1.5
2018-Jun-22 20:00N 39°50' W 075°21'3 6.0
2018-Jun-22 19:30N 39°51' W 075°18'0 0.0
2018-Jun-22 19:00N 39°51' W 075°18'0 0.2
2018-Jun-22 18:30N 39°51' W 075°17'0 0.4
2018-Jun-22 18:00N 39°51' W 075°18'0 0.1
2018-Jun-22 17:30N 39°51' W 075°18'2 4.2
2018-Jun-22 17:00N 39°51' W 075°15'510.8
2018-Jun-22 16:30N 39°53' W 075°09'510.2
2018-Jun-22 16:00N 39°58' W 075°07'2 3.8
2018-Jun-22 15:28N 39°59' W 075°05'0 0.0
2018-Jun-22 14:59N 39°59' W 075°05'0 0.0
2018-Jun-22 14:30N 39°59' W 075°05'0 0.0
2018-Jun-22 14:00N 39°59' W 075°05'0 0.0
2018-Jun-22 13:30N 39°59' W 075°05'0 0.0
2018-Jun-22 12:59N 39°59' W 075°05'0 0.0
2018-Jun-22 12:30N 39°59' W 075°05'0 0.0
2018-Jun-22 11:59N 39°59' W 075°05'0 0.0
2018-Jun-22 11:30N 39°59' W 075°05'2 3.4
2018-Jun-22 10:57N 39°58' W 075°07'4 9.4
2018-Jun-22 10:30N 39°54' W 075°08'3 6.1
2018-Jun-22 10:00N 39°54' W 075°12'0 0.3
2018-Jun-22 09:30N 39°54' W 075°12'5 9.8
2018-Jun-22 09:00N 39°51' W 075°17'5 0.3
2018-Jun-21 15:33N 39°50' W 075°23'0 0.0
2018-Jun-21 15:30N 39°50' W 075°23'0 0.0
2018-Jun-21 15:00N 39°50' W 075°23'0 0.0
2018-Jun-21 14:31N 39°50' W 075°23'0 0.0
2018-Jun-21 14:01N 39°50' W 075°23'0 0.0
2018-Jun-21 13:30N 39°50' W 075°23'0 0.0
2018-Jun-21 13:00N 39°50' W 075°23'0 0.0
2018-Jun-21 12:31N 39°50' W 075°23'0 0.1
2018-Jun-21 12:00N 39°50' W 075°23'0 0.0
2018-Jun-21 11:31N 39°50' W 075°23'0 0.0
2018-Jun-21 11:00N 39°50' W 075°23'0 0.0
2018-Jun-21 10:30N 39°50' W 075°23'0 0.0
2018-Jun-21 10:01N 39°50' W 075°23'0 0.0
2018-Jun-21 09:30N 39°50' W 075°23'0 0.0
2018-Jun-21 09:00N 39°50' W 075°23'0 0.0
2018-Jun-21 08:30N 39°50' W 075°23'0 0.0
2018-Jun-21 08:00N 39°50' W 075°23'0 0.0
2018-Jun-21 07:31N 39°50' W 075°23'0 0.0
2018-Jun-21 07:00N 39°50' W 075°23'0 0.0
2018-Jun-21 06:30N 39°50' W 075°23'0 0.0
2018-Jun-21 06:00N 39°50' W 075°23'0 0.0
2018-Jun-21 05:30N 39°50' W 075°23'0 0.0
2018-Jun-21 05:00N 39°50' W 075°23'0 0.0
2018-Jun-21 04:30N 39°50' W 075°23'0 0.0
2018-Jun-21 04:00N 39°50' W 075°23'0 0.0
2018-Jun-21 03:30N 39°50' W 075°23'0 0.0
2018-Jun-21 03:01N 39°50' W 075°23'0 0.0
2018-Jun-21 02:30N 39°50' W 075°23'0 0.0
2018-Jun-21 02:00N 39°50' W 075°23'0 0.0
2018-Jun-21 01:30N 39°50' W 075°23'0 0.0
2018-Jun-21 01:00N 39°50' W 075°23'0 0.0
2018-Jun-21 00:30N 39°50' W 075°23'0 0.0
2018-Jun-21 00:00N 39°50' W 075°23'0 0.0
2018-Jun-20 23:30N 39°50' W 075°23'0 0.0
2018-Jun-20 23:00N 39°50' W 075°23'0 0.0
2018-Jun-20 22:31N 39°50' W 075°23'0 0.0
2018-Jun-20 22:00N 39°50' W 075°23'0 0.0
2018-Jun-20 21:30N 39°50' W 075°23'0 0.0
2018-Jun-20 21:00N 39°50' W 075°23'0 0.0
2018-Jun-20 20:31N 39°50' W 075°23'0 0.0
2018-Jun-20 20:01N 39°50' W 075°23'2 4.8
2018-Jun-20 19:31N 39°51' W 075°20'510.3
2018-Jun-20 19:01N 39°52' W 075°14'2 4.5
2018-Jun-20 18:30N 39°54' W 075°13'1 3.0
2018-Jun-20 18:01N 39°53' W 075°11'3 6.8
2018-Jun-20 17:30N 39°55' W 075°08'4 7.2
2018-Jun-20 17:00N 39°58' W 075°06'1 2.5
2018-Jun-20 16:30N 39°59' W 075°05'0 0.0
2018-Jun-20 16:00N 39°59' W 075°05'0 0.0
2018-Jun-20 15:30N 39°59' W 075°05'0 0.0
2018-Jun-20 15:00N 39°59' W 075°05'0 0.0
2018-Jun-20 14:30N 39°59' W 075°05'0 0.0
2018-Jun-20 14:00N 39°59' W 075°05'0 0.0
2018-Jun-20 13:30N 39°59' W 075°05'0 0.0
2018-Jun-20 13:00N 39°59' W 075°05'0 0.0
2018-Jun-20 12:30N 39°59' W 075°05'0 0.0
2018-Jun-20 12:00N 39°59' W 075°05'0 0.0
2018-Jun-20 11:30N 39°59' W 075°05'0 0.1
2018-Jun-20 11:00N 39°59' W 075°05'4 8.1
2018-Jun-20 10:31N 39°56' W 075°08'4 7.6
2018-Jun-20 10:00N 39°53' W 075°11'1 2.2
2018-Jun-20 09:30N 39°54' W 075°12'0 0.0
2018-Jun-19 23:36N 39°54' W 075°13'1 6.5
2018-Jun-19 23:30N 39°54' W 075°12'2 4.9
2018-Jun-19 23:00N 39°53' W 075°09'3 5.8
2018-Jun-19 22:30N 39°56' W 075°08'2 4.8
2018-Jun-19 22:00N 39°58' W 075°07'2 3.7
2018-Jun-19 21:30N 39°59' W 075°05'5 9.7
2018-Jun-19 21:00N 39°55' W 075°08'510.2
2018-Jun-19 20:30N 39°52' W 075°13'611.3
2018-Jun-19 20:00N 39°51' W 075°21'2 4.0
2018-Jun-19 19:30N 39°50' W 075°23'3 6.1
2018-Jun-19 19:00N 39°51' W 075°19'3 5.2
2018-Jun-19 18:30N 39°51' W 075°16'5 9.4
2018-Jun-19 18:00N 39°53' W 075°10'4 7.8
2018-Jun-19 17:30N 39°56' W 075°08'4 8.0
2018-Jun-19 17:00N 39°59' W 075°04'0 0.0
2018-Jun-19 16:30N 39°59' W 075°04'0 0.0
2018-Jun-19 16:00N 39°59' W 075°04'0 0.0
2018-Jun-19 15:30N 39°59' W 075°04'0 0.0
2018-Jun-19 15:00N 39°59' W 075°04'0 0.6
2018-Jun-19 14:30N 39°59' W 075°04'0 0.2
2018-Jun-19 14:00N 39°59' W 075°05'0 0.0
2018-Jun-19 13:30N 39°59' W 075°05'0 0.0
2018-Jun-19 13:00N 39°59' W 075°05'0 0.0
2018-Jun-19 12:30N 39°59' W 075°05'0 0.0
2018-Jun-19 12:00N 39°59' W 075°05'0 0.0
2018-Jun-19 11:30N 39°59' W 075°05'0 0.0
2018-Jun-19 11:00N 39°59' W 075°05'0 0.0
2018-Jun-19 10:30N 39°59' W 075°05'1 2.3
2018-Jun-19 10:00N 39°58' W 075°06'5 9.7
2018-Jun-19 09:30N 39°54' W 075°08'4 7.0
2018-Jun-19 09:00N 39°54' W 075°13'0 0.0
2018-Jun-18 19:41N 39°54' W 075°13'0 0.1
2018-Jun-18 19:30N 39°54' W 075°13'1 2.7
2018-Jun-18 19:00N 39°53' W 075°12'3 5.4
2018-Jun-18 18:30N 39°54' W 075°08'3 6.7
2018-Jun-18 18:00N 39°57' W 075°08'3 6.5
2018-Jun-18 17:31N 39°59' W 075°05'0 0.0
2018-Jun-18 17:00N 39°59' W 075°05'0 0.0
2018-Jun-18 16:30N 39°59' W 075°05'0 0.0
2018-Jun-18 16:00N 39°59' W 075°05'0 0.0
2018-Jun-18 15:30N 39°59' W 075°05'0 0.0
2018-Jun-18 15:01N 39°59' W 075°05'0 0.7
2018-Jun-18 14:30N 39°59' W 075°04'3 5.9
2018-Jun-18 14:00N 39°58' W 075°08'3 6.4
2018-Jun-18 13:31N 39°54' W 075°08'2 4.2
2018-Jun-18 13:00N 39°53' W 075°09'0 0.0
2018-Jun-18 12:30N 39°53' W 075°09'1 2.3
2018-Jun-18 12:00N 39°53' W 075°11'3 6.9
2018-Jun-18 11:30N 39°51' W 075°15'4 7.2
2018-Jun-18 11:00N 39°51' W 075°20'3 5.6
2018-Jun-18 10:30N 39°50' W 075°23'0 0.0
2018-Jun-18 10:00N 39°50' W 075°23'0 0.1
2018-Jun-18 09:30N 39°50' W 075°23'0 0.0
2018-Jun-18 09:00N 39°50' W 075°23'0 0.0
2018-Jun-18 08:30N 39°50' W 075°23'0 0.0
2018-Jun-18 08:00N 39°50' W 075°23'0 0.0
2018-Jun-18 07:30N 39°50' W 075°23'0 0.0
2018-Jun-18 07:00N 39°50' W 075°23'0 0.0
2018-Jun-18 06:30N 39°50' W 075°23'0 0.0
2018-Jun-18 06:00N 39°50' W 075°23'0 0.0
2018-Jun-18 05:28N 39°50' W 075°23'0 0.0
2018-Jun-18 05:00N 39°50' W 075°23'0 0.0
2018-Jun-18 04:30N 39°50' W 075°23'0 0.0
2018-Jun-18 04:00N 39°50' W 075°23'0 0.0
2018-Jun-18 03:30N 39°50' W 075°23'0 0.0
2018-Jun-18 03:00N 39°50' W 075°23'0 0.0
2018-Jun-18 02:30N 39°50' W 075°23'0 0.0
2018-Jun-18 02:00N 39°50' W 075°23'0 0.0
2018-Jun-18 01:30N 39°50' W 075°23'0 0.0
2018-Jun-18 01:00N 39°50' W 075°23'0 0.1
2018-Jun-18 00:30N 39°50' W 075°23'0 0.0
2018-Jun-18 00:00N 39°50' W 075°23'0 0.0
2018-Jun-17 23:30N 39°50' W 075°23'0 0.0
2018-Jun-17 23:00N 39°50' W 075°23'0 0.0
2018-Jun-17 22:30N 39°50' W 075°23'0 0.0
2018-Jun-17 22:00N 39°50' W 075°23'0 0.0
2018-Jun-17 21:30N 39°50' W 075°23'0 0.0
2018-Jun-17 21:00N 39°50' W 075°23'0 0.0
2018-Jun-17 20:29N 39°50' W 075°23'0 0.0
2018-Jun-17 20:00N 39°50' W 075°23'0 0.0
2018-Jun-17 19:31N 39°50' W 075°23'0 0.0
2018-Jun-17 19:00N 39°50' W 075°23'0 0.0
2018-Jun-17 18:30N 39°50' W 075°23'0 0.0
2018-Jun-17 18:00N 39°50' W 075°23'0 0.0
2018-Jun-17 17:31N 39°50' W 075°23'0 0.0
2018-Jun-17 17:00N 39°50' W 075°23'0 0.0
2018-Jun-17 16:30N 39°50' W 075°23'0 0.0
2018-Jun-17 16:01N 39°50' W 075°23'0 0.0
2018-Jun-17 15:30N 39°50' W 075°23'0 0.0
2018-Jun-17 15:00N 39°50' W 075°23'0 0.0
2018-Jun-17 14:30N 39°50' W 075°23'0 0.0
2018-Jun-17 14:01N 39°50' W 075°23'0 0.0
2018-Jun-17 13:30N 39°50' W 075°23'0 0.0
2018-Jun-17 13:00N 39°50' W 075°23'0 0.0
2018-Jun-17 12:30N 39°50' W 075°23'0 0.0
2018-Jun-17 12:00N 39°50' W 075°23'0 0.0
2018-Jun-17 11:30N 39°50' W 075°23'0 0.0
2018-Jun-17 11:00N 39°50' W 075°23'0 0.0
2018-Jun-17 10:30N 39°50' W 075°23'0 0.0
2018-Jun-17 10:00N 39°50' W 075°23'0 0.0
2018-Jun-17 09:30N 39°50' W 075°23'0 0.0
2018-Jun-17 09:00N 39°50' W 075°23'0 0.0
2018-Jun-17 08:31N 39°50' W 075°23'0 0.0
2018-Jun-17 08:00N 39°50' W 075°23'0 0.0
2018-Jun-17 07:30N 39°50' W 075°23'0 0.0
2018-Jun-17 07:00N 39°50' W 075°23'0 0.0
2018-Jun-17 06:31N 39°50' W 075°23'0 0.0
2018-Jun-17 06:01N 39°50' W 075°23'0 0.0
2018-Jun-17 05:30N 39°50' W 075°23'0 0.0
2018-Jun-17 05:00N 39°50' W 075°23'0 0.0
2018-Jun-17 04:30N 39°50' W 075°23'0 0.0
2018-Jun-17 04:01N 39°50' W 075°23'0 0.0
2018-Jun-17 03:31N 39°50' W 075°23'0 0.0
2018-Jun-17 03:01N 39°50' W 075°23'2 4.6
2018-Jun-17 02:30N 39°51' W 075°20'612.2
2018-Jun-17 02:00N 39°52' W 075°13'3 5.3
2018-Jun-17 01:31N 39°53' W 075°09'611.1
2018-Jun-17 01:00N 39°58' W 075°07'2 3.7
2018-Jun-17 00:30N 39°59' W 075°05'3 6.0
2018-Jun-17 00:01N 39°57' W 075°08'4 7.3
2018-Jun-16 23:30N 39°54' W 075°08'3 5.8
2018-Jun-16 23:00N 39°53' W 075°12'1 2.3
2018-Jun-16 22:30N 39°54' W 075°13'2 3.4
2018-Jun-16 22:00N 39°53' W 075°11'3 6.5
2018-Jun-16 21:30N 39°55' W 075°08'3 6.3
2018-Jun-16 21:00N 39°58' W 075°07'2 3.8
2018-Jun-16 20:30N 39°59' W 075°05'0 0.0
2018-Jun-16 20:00N 39°59' W 075°05'0 0.0
2018-Jun-16 19:30N 39°59' W 075°05'0 0.0
2018-Jun-16 19:00N 39°59' W 075°05'0 0.0
2018-Jun-16 18:30N 39°59' W 075°05'0 0.0
2018-Jun-16 18:01N 39°59' W 075°05'0 0.0
2018-Jun-16 17:30N 39°59' W 075°05'0 0.0
2018-Jun-16 17:00N 39°59' W 075°05'0 0.0
2018-Jun-16 16:30N 39°59' W 075°05'0 0.0
2018-Jun-16 16:00N 39°59' W 075°05'0 0.0
2018-Jun-16 15:30N 39°59' W 075°05'0 0.0
2018-Jun-16 15:00N 39°59' W 075°05'1 2.1
2018-Jun-16 14:30N 39°58' W 075°06'4 7.1
2018-Jun-16 14:00N 39°55' W 075°08'3 6.4
2018-Jun-16 13:30N 39°53' W 075°11'1 0.1
2018-Jun-15 20:39N 39°54' W 075°12'0 2.9
2018-Jun-15 20:31N 39°54' W 075°12'0 0.8
2018-Jun-15 19:56N 39°54' W 075°13'2 4.7
2018-Jun-15 19:31N 39°52' W 075°13'  

Dump ship's entire track history